TimeCET,TemperatureF,Dew PointF,Humidity,Sea Level PressureIn,VisibilityMPH,Wind Direction,Wind SpeedMPH,Gust SpeedMPH,PrecipitationIn,Events,Conditions,WindDirDegrees,DateUTC
12:55 AM,14.0,6.8,73,29.53,-9999.0,WNW,12.7,-,N/A,,Clear,300,2012-12-02 23:55:00
1:00 AM,14,6,59,,6,WNW,12.7,,,,,300,2012-12-03 00:00:00
3:55 AM,14.0,6.8,73,29.59,-9999.0,WNW,6.9,-,N/A,,Clear,300,2012-12-03 02:55:00
4:00 AM,15,7,58,,6,WNW,6.9,,,,,300,2012-12-03 03:00:00
4:55 AM,14.0,6.8,73,29.62,-9999.0,WNW,11.5,-,N/A,,Clear,300,2012-12-03 03:55:00
5:55 AM,15.8,3.2,58,29.62,-9999.0,NNW,11.5,-,N/A,,Clear,340,2012-12-03 04:55:00
6:55 AM,14.0,3.2,62,29.65,-9999.0,NNW,6.9,-,N/A,,Clear,330,2012-12-03 05:55:00
7:00 AM,14,3,48,,6,NNW,6.9,,,,,330,2012-12-03 06:00:00
7:55 AM,14.0,3.2,62,29.65,-9999.0,North,9.2,-,N/A,,Clear,350,2012-12-03 06:55:00
8:55 AM,15.8,1.4,53,29.68,-9999.0,NNE,13.8,-,N/A,,Clear,30,2012-12-03 07:55:00
9:55 AM,15.8,1.4,53,29.71,-9999.0,North,13.8,-,N/A,,Clear,10,2012-12-03 08:55:00
10:00 AM,16,1,36,,25,North,13.8,,,,,10,2012-12-03 09:00:00
10:55 AM,17.6,1.4,49,29.71,-9999.0,SE,3.5,-,N/A,,Clear,140,2012-12-03 09:55:00
11:55 AM,19.4,3.2,49,29.71,-9999.0,NNE,6.9,-,N/A,,Clear,20,2012-12-03 10:55:00
12:55 PM,19.4,5.0,54,29.71,-9999.0,NNE,4.6,-,N/A,,Clear,30,2012-12-03 11:55:00
1:00 PM,20,6,39,,25,NNE,4.6,,,,,30,2012-12-03 12:00:00
1:55 PM,19.4,8.6,63,29.71,-9999.0,ENE,4.6,-,N/A,,Clear,60,2012-12-03 12:55:00
2:55 PM,17.6,5.0,58,29.71,-9999.0,North,5.8,-,N/A,,Clear,350,2012-12-03 13:55:00
3:55 PM,19.4,3.2,49,29.71,-9999.0,WNW,4.6,-,N/A,,Clear,300,2012-12-03 14:55:00
4:00 PM,20,2,31,,25,WNW,4.6,,,,,300,2012-12-03 15:00:00
4:55 PM,19.4,-0.4,42,29.71,-9999.0,West,9.2,-,N/A,,Clear,260,2012-12-03 15:55:00
5:55 PM,19.4,1.4,46,29.71,-9999.0,NNW,6.9,-,N/A,,Clear,340,2012-12-03 16:55:00
6:55 PM,21.2,1.4,42,29.71,-9999.0,NNW,5.8,-,N/A,,Clear,340,2012-12-03 17:55:00
7:00 PM,20,2,30,,6,NNW,5.8,,,,,340,2012-12-03 18:00:00
9:55 PM,23.0,15.8,74,29.71,-9999.0,North,5.8,-,N/A,,Clear,360,2012-12-03 20:55:00
10:00 PM,23,15,60,,6,North,5.8,,,,,0,2012-12-03 21:00:00